sensor_id;sensor_type;location;lat;lon;timestamp;P1;durP1;ratioP1;P2;durP2;ratioP2
48727;SDS011;34527;45.618;5.130;2023-05-07T00:01:38;1.55;;;1.30;;
48727;SDS011;34527;45.618;5.130;2023-05-07T00:04:04;2.53;;;1.42;;
48727;SDS011;34527;45.618;5.130;2023-05-07T00:06:30;1.40;;;1.10;;
48727;SDS011;34527;45.618;5.130;2023-05-07T00:08:57;2.80;;;1.45;;
48727;SDS011;34527;45.618;5.130;2023-05-07T00:11:23;2.92;;;1.40;;
48727;SDS011;34527;45.618;5.130;2023-05-07T00:13:48;2.33;;;1.05;;
48727;SDS011;34527;45.618;5.130;2023-05-07T00:16:14;2.97;;;1.40;;
48727;SDS011;34527;45.618;5.130;2023-05-07T00:18:40;2.40;;;1.15;;
48727;SDS011;34527;45.618;5.130;2023-05-07T00:21:05;1.38;;;1.02;;
48727;SDS011;34527;45.618;5.130;2023-05-07T00:23:31;2.30;;;1.00;;
48727;SDS011;34527;45.618;5.130;2023-05-07T00:25:56;0.95;;;0.95;;
48727;SDS011;34527;45.618;5.130;2023-05-07T00:28:22;1.30;;;1.05;;
48727;SDS011;34527;45.618;5.130;2023-05-07T00:30:47;1.55;;;1.08;;
48727;SDS011;34527;45.618;5.130;2023-05-07T00:33:13;1.98;;;1.27;;
48727;SDS011;34527;45.618;5.130;2023-05-07T00:35:39;1.40;;;1.00;;
48727;SDS011;34527;45.618;5.130;2023-05-07T00:38:04;1.23;;;1.20;;
48727;SDS011;34527;45.618;5.130;2023-05-07T00:40:30;2.00;;;1.20;;
48727;SDS011;34527;45.618;5.130;2023-05-07T00:42:55;1.67;;;1.20;;
48727;SDS011;34527;45.618;5.130;2023-05-07T00:45:23;3.25;;;1.30;;
48727;SDS011;34527;45.618;5.130;2023-05-07T00:47:53;1.17;;;1.08;;
48727;SDS011;34527;45.618;5.130;2023-05-07T00:50:20;2.08;;;1.20;;
48727;SDS011;34527;45.618;5.130;2023-05-07T00:52:46;2.53;;;1.20;;
48727;SDS011;34527;45.618;5.130;2023-05-07T00:55:11;2.55;;;1.13;;
48727;SDS011;34527;45.618;5.130;2023-05-07T00:57:39;1.58;;;1.25;;
48727;SDS011;34527;45.618;5.130;2023-05-07T01:00:06;1.60;;;1.10;;
48727;SDS011;34527;45.618;5.130;2023-05-07T01:02:34;1.55;;;1.10;;
48727;SDS011;34527;45.618;5.130;2023-05-07T01:05:00;1.40;;;1.30;;
48727;SDS011;34527;45.618;5.130;2023-05-07T01:07:28;1.38;;;1.10;;
48727;SDS011;34527;45.618;5.130;2023-05-07T01:09:54;2.72;;;1.35;;
48727;SDS011;34527;45.618;5.130;2023-05-07T01:12:20;1.30;;;1.20;;
48727;SDS011;34527;45.618;5.130;2023-05-07T01:14:46;1.50;;;1.20;;
48727;SDS011;34527;45.618;5.130;2023-05-07T01:17:14;3.17;;;1.25;;
48727;SDS011;34527;45.618;5.130;2023-05-07T01:19:40;1.98;;;1.48;;
48727;SDS011;34527;45.618;5.130;2023-05-07T01:22:09;3.45;;;1.00;;
48727;SDS011;34527;45.618;5.130;2023-05-07T01:24:36;2.35;;;1.30;;
48727;SDS011;34527;45.618;5.130;2023-05-07T01:27:03;1.40;;;1.30;;
48727;SDS011;34527;45.618;5.130;2023-05-07T01:29:29;4.95;;;1.42;;
48727;SDS011;34527;45.618;5.130;2023-05-07T01:31:58;1.77;;;1.30;;
48727;SDS011;34527;45.618;5.130;2023-05-07T01:34:25;2.15;;;1.10;;
48727;SDS011;34527;45.618;5.130;2023-05-07T01:36:56;1.20;;;1.10;;
48727;SDS011;34527;45.618;5.130;2023-05-07T01:39:26;1.65;;;1.20;;
48727;SDS011;34527;45.618;5.130;2023-05-07T01:41:54;1.42;;;1.33;;
48727;SDS011;34527;45.618;5.130;2023-05-07T01:44:21;1.58;;;1.30;;
48727;SDS011;34527;45.618;5.130;2023-05-07T01:46:48;3.08;;;1.38;;
48727;SDS011;34527;45.618;5.130;2023-05-07T01:49:14;1.40;;;1.20;;
48727;SDS011;34527;45.618;5.130;2023-05-07T01:51:41;2.10;;;1.10;;
48727;SDS011;34527;45.618;5.130;2023-05-07T01:54:06;1.77;;;1.40;;
48727;SDS011;34527;45.618;5.130;2023-05-07T01:56:33;1.55;;;1.40;;
48727;SDS011;34527;45.618;5.130;2023-05-07T01:58:58;1.50;;;1.10;;
48727;SDS011;34527;45.618;5.130;2023-05-07T02:01:24;1.35;;;1.25;;
48727;SDS011;34527;45.618;5.130;2023-05-07T02:03:50;1.58;;;1.30;;
48727;SDS011;34527;45.618;5.130;2023-05-07T02:06:15;1.23;;;1.13;;
48727;SDS011;34527;45.618;5.130;2023-05-07T02:08:41;1.38;;;1.25;;
48727;SDS011;34527;45.618;5.130;2023-05-07T02:11:07;1.70;;;1.30;;
48727;SDS011;34527;45.618;5.130;2023-05-07T02:13:33;3.50;;;1.77;;
48727;SDS011;34527;45.618;5.130;2023-05-07T02:15:59;3.03;;;1.33;;
48727;SDS011;34527;45.618;5.130;2023-05-07T02:18:25;1.98;;;1.23;;
48727;SDS011;34527;45.618;5.130;2023-05-07T02:20:51;3.55;;;1.30;;
48727;SDS011;34527;45.618;5.130;2023-05-07T02:23:16;2.70;;;1.50;;
48727;SDS011;34527;45.618;5.130;2023-05-07T02:25:42;2.22;;;1.27;;
48727;SDS011;34527;45.618;5.130;2023-05-07T02:28:07;2.65;;;1.65;;
48727;SDS011;34527;45.618;5.130;2023-05-07T02:30:33;1.30;;;1.20;;
48727;SDS011;34527;45.618;5.130;2023-05-07T02:32:59;1.50;;;1.38;;
48727;SDS011;34527;45.618;5.130;2023-05-07T02:35:25;1.30;;;1.13;;
48727;SDS011;34527;45.618;5.130;2023-05-07T02:37:51;3.05;;;1.40;;
48727;SDS011;34527;45.618;5.130;2023-05-07T02:40:16;2.22;;;1.67;;
48727;SDS011;34527;45.618;5.130;2023-05-07T02:42:42;1.42;;;1.20;;
48727;SDS011;34527;45.618;5.130;2023-05-07T02:45:08;2.83;;;1.48;;
48727;SDS011;34527;45.618;5.130;2023-05-07T02:47:34;2.75;;;1.50;;
48727;SDS011;34527;45.618;5.130;2023-05-07T02:49:59;1.65;;;1.52;;
48727;SDS011;34527;45.618;5.130;2023-05-07T02:52:25;2.10;;;1.40;;
48727;SDS011;34527;45.618;5.130;2023-05-07T02:54:51;3.28;;;1.80;;
48727;SDS011;34527;45.618;5.130;2023-05-07T02:57:16;1.92;;;1.50;;
48727;SDS011;34527;45.618;5.130;2023-05-07T02:59:42;2.58;;;1.52;;
48727;SDS011;34527;45.618;5.130;2023-05-07T03:02:08;1.70;;;1.60;;
48727;SDS011;34527;45.618;5.130;2023-05-07T03:04:34;1.30;;;1.20;;
48727;SDS011;34527;45.618;5.130;2023-05-07T03:06:59;1.45;;;1.35;;
48727;SDS011;34527;45.618;5.130;2023-05-07T03:09:25;1.92;;;1.63;;
48727;SDS011;34527;45.618;5.130;2023-05-07T03:11:51;2.13;;;1.48;;
48727;SDS011;34527;45.618;5.130;2023-05-07T03:14:16;1.63;;;1.52;;
48727;SDS011;34527;45.618;5.130;2023-05-07T03:16:42;1.65;;;1.55;;
48727;SDS011;34527;45.618;5.130;2023-05-07T03:19:08;2.50;;;1.60;;
48727;SDS011;34527;45.618;5.130;2023-05-07T03:21:33;1.85;;;1.55;;
48727;SDS011;34527;45.618;5.130;2023-05-07T03:23:59;1.92;;;1.42;;
48727;SDS011;34527;45.618;5.130;2023-05-07T03:26:25;5.85;;;1.55;;
48727;SDS011;34527;45.618;5.130;2023-05-07T03:28:51;1.67;;;1.50;;
48727;SDS011;34527;45.618;5.130;2023-05-07T03:31:17;2.22;;;1.70;;
48727;SDS011;34527;45.618;5.130;2023-05-07T03:33:52;3.88;;;1.60;;
48727;SDS011;34527;45.618;5.130;2023-05-07T03:36:20;2.60;;;1.40;;
48727;SDS011;34527;45.618;5.130;2023-05-07T03:38:46;2.08;;;1.50;;
48727;SDS011;34527;45.618;5.130;2023-05-07T03:41:12;1.67;;;1.58;;
48727;SDS011;34527;45.618;5.130;2023-05-07T03:43:38;1.63;;;1.42;;
48727;SDS011;34527;45.618;5.130;2023-05-07T03:46:04;1.40;;;1.30;;
48727;SDS011;34527;45.618;5.130;2023-05-07T03:48:29;1.90;;;1.63;;
48727;SDS011;34527;45.618;5.130;2023-05-07T03:50:55;2.83;;;1.65;;
48727;SDS011;34527;45.618;5.130;2023-05-07T03:53:22;2.97;;;1.58;;
48727;SDS011;34527;45.618;5.130;2023-05-07T03:55:47;1.80;;;1.70;;
48727;SDS011;34527;45.618;5.130;2023-05-07T03:58:13;2.00;;;1.73;;
48727;SDS011;34527;45.618;5.130;2023-05-07T04:00:38;2.25;;;1.40;;
48727;SDS011;34527;45.618;5.130;2023-05-07T04:03:05;2.63;;;1.73;;
48727;SDS011;34527;45.618;5.130;2023-05-07T04:05:31;3.80;;;2.05;;
48727;SDS011;34527;45.618;5.130;2023-05-07T04:08:00;1.60;;;1.50;;
48727;SDS011;34527;45.618;5.130;2023-05-07T04:10:27;1.40;;;1.30;;
48727;SDS011;34527;45.618;5.130;2023-05-07T04:12:55;3.90;;;1.50;;
48727;SDS011;34527;45.618;5.130;2023-05-07T04:15:22;3.10;;;1.50;;
48727;SDS011;34527;45.618;5.130;2023-05-07T04:17:48;1.52;;;1.42;;
48727;SDS011;34527;45.618;5.130;2023-05-07T04:20:16;2.83;;;1.70;;
48727;SDS011;34527;45.618;5.130;2023-05-07T04:22:42;2.65;;;1.58;;
48727;SDS011;34527;45.618;5.130;2023-05-07T04:25:08;2.28;;;1.70;;
48727;SDS011;34527;45.618;5.130;2023-05-07T04:27:34;2.58;;;2.05;;
48727;SDS011;34527;45.618;5.130;2023-05-07T04:30:01;2.60;;;1.73;;
48727;SDS011;34527;45.618;5.130;2023-05-07T04:32:27;2.53;;;1.70;;
48727;SDS011;34527;45.618;5.130;2023-05-07T04:34:54;3.28;;;1.70;;
48727;SDS011;34527;45.618;5.130;2023-05-07T04:37:20;2.22;;;1.30;;
48727;SDS011;34527;45.618;5.130;2023-05-07T04:39:46;3.80;;;1.83;;
48727;SDS011;34527;45.618;5.130;2023-05-07T04:42:15;1.77;;;1.48;;
48727;SDS011;34527;45.618;5.130;2023-05-07T04:44:41;2.75;;;1.70;;
48727;SDS011;34527;45.618;5.130;2023-05-07T04:47:06;3.08;;;1.70;;
48727;SDS011;34527;45.618;5.130;2023-05-07T04:49:32;2.38;;;1.70;;
48727;SDS011;34527;45.618;5.130;2023-05-07T04:51:58;2.78;;;1.80;;
48727;SDS011;34527;45.618;5.130;2023-05-07T04:54:23;1.65;;;1.50;;
48727;SDS011;34527;45.618;5.130;2023-05-07T04:56:50;3.38;;;1.60;;
48727;SDS011;34527;45.618;5.130;2023-05-07T04:59:15;2.80;;;1.77;;
48727;SDS011;34527;45.618;5.130;2023-05-07T05:01:41;2.60;;;1.35;;
48727;SDS011;34527;45.618;5.130;2023-05-07T05:04:06;2.33;;;1.80;;
48727;SDS011;34527;45.618;5.130;2023-05-07T05:06:32;2.03;;;1.83;;
48727;SDS011;34527;45.618;5.130;2023-05-07T05:08:58;2.83;;;1.67;;
48727;SDS011;34527;45.618;5.130;2023-05-07T05:11:23;2.45;;;1.70;;
48727;SDS011;34527;45.618;5.130;2023-05-07T05:13:49;3.40;;;1.65;;
48727;SDS011;34527;45.618;5.130;2023-05-07T05:16:15;2.28;;;1.88;;
48727;SDS011;34527;45.618;5.130;2023-05-07T05:18:40;3.15;;;1.67;;
48727;SDS011;34527;45.618;5.130;2023-05-07T05:21:06;3.55;;;1.80;;
48727;SDS011;34527;45.618;5.130;2023-05-07T05:23:31;1.92;;;1.50;;
48727;SDS011;34527;45.618;5.130;2023-05-07T05:25:57;2.58;;;1.75;;
48727;SDS011;34527;45.618;5.130;2023-05-07T05:28:23;2.72;;;1.92;;
48727;SDS011;34527;45.618;5.130;2023-05-07T05:30:49;3.05;;;1.58;;
48727;SDS011;34527;45.618;5.130;2023-05-07T05:33:15;2.65;;;1.80;;
48727;SDS011;34527;45.618;5.130;2023-05-07T05:35:41;3.30;;;1.83;;
48727;SDS011;34527;45.618;5.130;2023-05-07T05:38:07;2.75;;;1.60;;
48727;SDS011;34527;45.618;5.130;2023-05-07T05:40:33;3.78;;;1.73;;
48727;SDS011;34527;45.618;5.130;2023-05-07T05:42:59;2.25;;;1.75;;
48727;SDS011;34527;45.618;5.130;2023-05-07T05:45:25;2.63;;;2.00;;
48727;SDS011;34527;45.618;5.130;2023-05-07T05:47:51;2.33;;;1.65;;
48727;SDS011;34527;45.618;5.130;2023-05-07T05:50:16;1.75;;;1.65;;
48727;SDS011;34527;45.618;5.130;2023-05-07T05:52:42;2.40;;;1.77;;
48727;SDS011;34527;45.618;5.130;2023-05-07T05:55:08;1.80;;;1.70;;
48727;SDS011;34527;45.618;5.130;2023-05-07T05:57:34;1.90;;;1.50;;
48727;SDS011;34527;45.618;5.130;2023-05-07T06:00:00;3.20;;;1.77;;
48727;SDS011;34527;45.618;5.130;2023-05-07T06:02:27;1.95;;;1.52;;
48727;SDS011;34527;45.618;5.130;2023-05-07T06:04:53;1.90;;;1.70;;
48727;SDS011;34527;45.618;5.130;2023-05-07T06:07:18;2.45;;;1.77;;
48727;SDS011;34527;45.618;5.130;2023-05-07T06:09:44;1.90;;;1.80;;
48727;SDS011;34527;45.618;5.130;2023-05-07T06:12:09;3.00;;;1.70;;
48727;SDS011;34527;45.618;5.130;2023-05-07T06:14:36;1.67;;;1.58;;
48727;SDS011;34527;45.618;5.130;2023-05-07T06:17:02;7.38;;;1.85;;
48727;SDS011;34527;45.618;5.130;2023-05-07T06:19:27;1.88;;;1.63;;
48727;SDS011;34527;45.618;5.130;2023-05-07T06:21:53;1.77;;;1.40;;
48727;SDS011;34527;45.618;5.130;2023-05-07T06:24:19;2.72;;;1.67;;
48727;SDS011;34527;45.618;5.130;2023-05-07T06:26:44;1.73;;;1.50;;
48727;SDS011;34527;45.618;5.130;2023-05-07T06:29:10;2.67;;;1.45;;
48727;SDS011;34527;45.618;5.130;2023-05-07T06:31:35;3.00;;;1.67;;
48727;SDS011;34527;45.618;5.130;2023-05-07T06:34:01;2.65;;;1.40;;
48727;SDS011;34527;45.618;5.130;2023-05-07T06:36:27;1.58;;;1.45;;
48727;SDS011;34527;45.618;5.130;2023-05-07T06:38:53;1.77;;;1.58;;
48727;SDS011;34527;45.618;5.130;2023-05-07T06:41:18;2.53;;;1.40;;
48727;SDS011;34527;45.618;5.130;2023-05-07T06:43:45;2.13;;;1.50;;
48727;SDS011;34527;45.618;5.130;2023-05-07T06:46:11;2.65;;;1.45;;
48727;SDS011;34527;45.618;5.130;2023-05-07T06:48:36;2.40;;;1.55;;
48727;SDS011;34527;45.618;5.130;2023-05-07T06:51:02;3.97;;;1.67;;
48727;SDS011;34527;45.618;5.130;2023-05-07T06:53:28;1.80;;;1.50;;
48727;SDS011;34527;45.618;5.130;2023-05-07T06:55:55;3.58;;;1.50;;
48727;SDS011;34527;45.618;5.130;2023-05-07T06:58:21;3.08;;;1.60;;
48727;SDS011;34527;45.618;5.130;2023-05-07T07:00:47;1.85;;;1.65;;
48727;SDS011;34527;45.618;5.130;2023-05-07T07:03:12;1.95;;;1.52;;
48727;SDS011;34527;45.618;5.130;2023-05-07T07:05:39;2.42;;;1.60;;
48727;SDS011;34527;45.618;5.130;2023-05-07T07:08:05;2.53;;;1.90;;
48727;SDS011;34527;45.618;5.130;2023-05-07T07:10:31;2.83;;;1.65;;
48727;SDS011;34527;45.618;5.130;2023-05-07T07:12:57;1.83;;;1.60;;
48727;SDS011;34527;45.618;5.130;2023-05-07T07:15:22;4.38;;;2.97;;
48727;SDS011;34527;45.618;5.130;2023-05-07T07:17:50;4.03;;;2.70;;
48727;SDS011;34527;45.618;5.130;2023-05-07T07:20:16;6.18;;;2.70;;
48727;SDS011;34527;45.618;5.130;2023-05-07T07:22:41;4.30;;;2.85;;
48727;SDS011;34527;45.618;5.130;2023-05-07T07:25:07;3.03;;;2.10;;
48727;SDS011;34527;45.618;5.130;2023-05-07T07:27:33;2.20;;;1.80;;
48727;SDS011;34527;45.618;5.130;2023-05-07T07:29:58;2.08;;;1.70;;
48727;SDS011;34527;45.618;5.130;2023-05-07T07:32:24;2.65;;;1.88;;
48727;SDS011;34527;45.618;5.130;2023-05-07T07:34:50;2.03;;;1.60;;
48727;SDS011;34527;45.618;5.130;2023-05-07T07:37:16;1.48;;;1.38;;
48727;SDS011;34527;45.618;5.130;2023-05-07T07:39:41;2.10;;;1.80;;
48727;SDS011;34527;45.618;5.130;2023-05-07T07:42:07;2.10;;;1.70;;
48727;SDS011;34527;45.618;5.130;2023-05-07T07:44:33;2.53;;;2.10;;
48727;SDS011;34527;45.618;5.130;2023-05-07T07:46:58;3.13;;;1.80;;
48727;SDS011;34527;45.618;5.130;2023-05-07T07:49:24;3.90;;;2.00;;
48727;SDS011;34527;45.618;5.130;2023-05-07T07:51:49;3.38;;;1.67;;
48727;SDS011;34527;45.618;5.130;2023-05-07T07:54:16;2.08;;;1.60;;
48727;SDS011;34527;45.618;5.130;2023-05-07T07:56:41;2.85;;;2.00;;
48727;SDS011;34527;45.618;5.130;2023-05-07T07:59:07;2.00;;;1.80;;
48727;SDS011;34527;45.618;5.130;2023-05-07T08:01:32;1.70;;;1.60;;
48727;SDS011;34527;45.618;5.130;2023-05-07T08:03:58;2.35;;;1.77;;
48727;SDS011;34527;45.618;5.130;2023-05-07T08:06:24;1.60;;;1.40;;
48727;SDS011;34527;45.618;5.130;2023-05-07T08:08:52;2.35;;;1.63;;
48727;SDS011;34527;45.618;5.130;2023-05-07T08:11:18;2.95;;;1.70;;
48727;SDS011;34527;45.618;5.130;2023-05-07T08:13:43;1.50;;;1.40;;
48727;SDS011;34527;45.618;5.130;2023-05-07T08:16:11;1.77;;;1.67;;
48727;SDS011;34527;45.618;5.130;2023-05-07T08:18:37;1.73;;;1.40;;
48727;SDS011;34527;45.618;5.130;2023-05-07T08:21:02;2.30;;;1.63;;
48727;SDS011;34527;45.618;5.130;2023-05-07T08:23:28;2.85;;;1.58;;
48727;SDS011;34527;45.618;5.130;2023-05-07T08:25:54;2.25;;;1.55;;
48727;SDS011;34527;45.618;5.130;2023-05-07T08:28:20;2.10;;;1.50;;
48727;SDS011;34527;45.618;5.130;2023-05-07T08:30:46;3.33;;;1.45;;
48727;SDS011;34527;45.618;5.130;2023-05-07T08:33:12;2.53;;;1.67;;
48727;SDS011;34527;45.618;5.130;2023-05-07T08:35:38;2.72;;;1.80;;
48727;SDS011;34527;45.618;5.130;2023-05-07T08:38:04;1.75;;;1.65;;
48727;SDS011;34527;45.618;5.130;2023-05-07T08:40:29;2.50;;;1.70;;
48727;SDS011;34527;45.618;5.130;2023-05-07T08:43:01;2.50;;;1.90;;
48727;SDS011;34527;45.618;5.130;2023-05-07T08:45:27;3.38;;;1.85;;
48727;SDS011;34527;45.618;5.130;2023-05-07T08:47:58;3.15;;;1.60;;
48727;SDS011;34527;45.618;5.130;2023-05-07T08:50:24;2.30;;;1.80;;
48727;SDS011;34527;45.618;5.130;2023-05-07T08:52:50;2.42;;;1.85;;
48727;SDS011;34527;45.618;5.130;2023-05-07T08:55:16;2.67;;;2.00;;
48727;SDS011;34527;45.618;5.130;2023-05-07T08:57:42;2.97;;;1.98;;
48727;SDS011;34527;45.618;5.130;2023-05-07T09:00:08;3.47;;;2.20;;
48727;SDS011;34527;45.618;5.130;2023-05-07T09:02:35;2.78;;;2.03;;
48727;SDS011;34527;45.618;5.130;2023-05-07T09:05:01;1.95;;;1.80;;
48727;SDS011;34527;45.618;5.130;2023-05-07T09:07:27;3.10;;;1.90;;
48727;SDS011;34527;45.618;5.130;2023-05-07T09:09:55;2.33;;;2.13;;
48727;SDS011;34527;45.618;5.130;2023-05-07T09:12:22;2.45;;;2.20;;
48727;SDS011;34527;45.618;5.130;2023-05-07T09:14:47;2.40;;;2.20;;
48727;SDS011;34527;45.618;5.130;2023-05-07T09:17:14;4.03;;;2.40;;
48727;SDS011;34527;45.618;5.130;2023-05-07T09:19:41;3.22;;;2.22;;
48727;SDS011;34527;45.618;5.130;2023-05-07T09:22:08;2.58;;;2.25;;
48727;SDS011;34527;45.618;5.130;2023-05-07T09:24:34;4.15;;;2.28;;
48727;SDS011;34527;45.618;5.130;2023-05-07T09:27:01;5.10;;;2.65;;
48727;SDS011;34527;45.618;5.130;2023-05-07T09:29:27;3.33;;;2.45;;
48727;SDS011;34527;45.618;5.130;2023-05-07T09:31:55;4.15;;;2.88;;
48727;SDS011;34527;45.618;5.130;2023-05-07T09:34:21;4.03;;;3.20;;
48727;SDS011;34527;45.618;5.130;2023-05-07T09:36:47;3.88;;;3.08;;
48727;SDS011;34527;45.618;5.130;2023-05-07T09:39:13;3.30;;;2.88;;
48727;SDS011;34527;45.618;5.130;2023-05-07T09:41:45;5.95;;;3.28;;
48727;SDS011;34527;45.618;5.130;2023-05-07T09:44:12;3.50;;;2.67;;
48727;SDS011;34527;45.618;5.130;2023-05-07T09:46:39;4.85;;;3.08;;
48727;SDS011;34527;45.618;5.130;2023-05-07T09:49:10;4.13;;;3.00;;
48727;SDS011;34527;45.618;5.130;2023-05-07T09:51:45;3.63;;;3.17;;
48727;SDS011;34527;45.618;5.130;2023-05-07T09:54:14;6.97;;;3.25;;
48727;SDS011;34527;45.618;5.130;2023-05-07T09:56:40;3.72;;;2.95;;
48727;SDS011;34527;45.618;5.130;2023-05-07T09:59:07;5.10;;;2.85;;
48727;SDS011;34527;45.618;5.130;2023-05-07T10:01:36;3.03;;;2.72;;
48727;SDS011;34527;45.618;5.130;2023-05-07T10:04:02;4.15;;;2.72;;
48727;SDS011;34527;45.618;5.130;2023-05-07T10:06:29;3.47;;;2.47;;
48727;SDS011;34527;45.618;5.130;2023-05-07T10:08:56;4.13;;;2.70;;
48727;SDS011;34527;45.618;5.130;2023-05-07T10:11:22;3.72;;;2.38;;
48727;SDS011;34527;45.618;5.130;2023-05-07T10:13:48;3.83;;;2.80;;
48727;SDS011;34527;45.618;5.130;2023-05-07T10:16:14;2.60;;;2.40;;
48727;SDS011;34527;45.618;5.130;2023-05-07T10:18:40;3.75;;;2.78;;
48727;SDS011;34527;45.618;5.130;2023-05-07T10:23:31;3.40;;;2.58;;
48727;SDS011;34527;45.618;5.130;2023-05-07T10:25:58;5.50;;;2.63;;
48727;SDS011;34527;45.618;5.130;2023-05-07T10:28:27;2.85;;;2.50;;
48727;SDS011;34527;45.618;5.130;2023-05-07T10:31:01;3.15;;;2.45;;
48727;SDS011;34527;45.618;5.130;2023-05-07T10:33:30;3.80;;;2.65;;
48727;SDS011;34527;45.618;5.130;2023-05-07T10:35:59;3.42;;;2.50;;
48727;SDS011;34527;45.618;5.130;2023-05-07T10:38:27;3.67;;;2.45;;
48727;SDS011;34527;45.618;5.130;2023-05-07T10:40:53;3.92;;;2.75;;
48727;SDS011;34527;45.618;5.130;2023-05-07T10:43:18;3.15;;;2.28;;
48727;SDS011;34527;45.618;5.130;2023-05-07T10:45:49;3.45;;;2.55;;
48727;SDS011;34527;45.618;5.130;2023-05-07T10:51:38;2.67;;;2.45;;
48727;SDS011;34527;45.618;5.130;2023-05-07T10:56:37;3.40;;;1.92;;
48727;SDS011;34527;45.618;5.130;2023-05-07T10:59:29;2.53;;;2.20;;
48727;SDS011;34527;45.618;5.130;2023-05-07T11:01:59;3.35;;;2.17;;
48727;SDS011;34527;45.618;5.130;2023-05-07T11:04:29;2.63;;;2.33;;
48727;SDS011;34527;45.618;5.130;2023-05-07T11:15:03;3.88;;;2.40;;
48727;SDS011;34527;45.618;5.130;2023-05-07T11:17:33;2.67;;;2.15;;
48727;SDS011;34527;45.618;5.130;2023-05-07T11:20:00;3.10;;;2.60;;
48727;SDS011;34527;45.618;5.130;2023-05-07T11:24:55;2.70;;;2.45;;
48727;SDS011;34527;45.618;5.130;2023-05-07T11:27:28;3.10;;;2.22;;
48727;SDS011;34527;45.618;5.130;2023-05-07T11:29:54;2.33;;;2.13;;
48727;SDS011;34527;45.618;5.130;2023-05-07T11:32:23;2.33;;;2.10;;
48727;SDS011;34527;45.618;5.130;2023-05-07T11:34:52;3.78;;;2.30;;
48727;SDS011;34527;45.618;5.130;2023-05-07T11:37:19;4.63;;;2.50;;
48727;SDS011;34527;45.618;5.130;2023-05-07T11:39:45;3.92;;;2.42;;
48727;SDS011;34527;45.618;5.130;2023-05-07T11:42:27;3.50;;;2.10;;
48727;SDS011;34527;45.618;5.130;2023-05-07T11:44:54;3.78;;;2.28;;
48727;SDS011;34527;45.618;5.130;2023-05-07T11:47:20;3.70;;;2.33;;
48727;SDS011;34527;45.618;5.130;2023-05-07T11:49:49;2.75;;;2.45;;
48727;SDS011;34527;45.618;5.130;2023-05-07T11:52:16;3.13;;;2.33;;
48727;SDS011;34527;45.618;5.130;2023-05-07T11:54:48;4.00;;;2.47;;
48727;SDS011;34527;45.618;5.130;2023-05-07T11:57:21;3.63;;;2.40;;
48727;SDS011;34527;45.618;5.130;2023-05-07T11:59:48;2.65;;;2.28;;
48727;SDS011;34527;45.618;5.130;2023-05-07T12:02:22;2.42;;;2.22;;
48727;SDS011;34527;45.618;5.130;2023-05-07T12:04:49;2.25;;;2.05;;
48727;SDS011;34527;45.618;5.130;2023-05-07T12:07:16;3.22;;;2.20;;
48727;SDS011;34527;45.618;5.130;2023-05-07T12:09:43;2.30;;;2.03;;
48727;SDS011;34527;45.618;5.130;2023-05-07T12:12:10;4.20;;;2.15;;
48727;SDS011;34527;45.618;5.130;2023-05-07T12:14:39;4.00;;;2.25;;
48727;SDS011;34527;45.618;5.130;2023-05-07T12:17:06;3.97;;;2.30;;
48727;SDS011;34527;45.618;5.130;2023-05-07T12:19:33;2.42;;;2.08;;
48727;SDS011;34527;45.618;5.130;2023-05-07T12:22:00;2.40;;;2.20;;
48727;SDS011;34527;45.618;5.130;2023-05-07T12:24:27;6.18;;;2.42;;
48727;SDS011;34527;45.618;5.130;2023-05-07T12:26:53;3.25;;;2.72;;
48727;SDS011;34527;45.618;5.130;2023-05-07T12:29:22;2.92;;;2.55;;
48727;SDS011;34527;45.618;5.130;2023-05-07T12:31:48;5.00;;;2.65;;
48727;SDS011;34527;45.618;5.130;2023-05-07T12:34:15;2.92;;;2.72;;
48727;SDS011;34527;45.618;5.130;2023-05-07T12:36:41;4.35;;;2.92;;
48727;SDS011;34527;45.618;5.130;2023-05-07T12:39:07;3.88;;;3.47;;
48727;SDS011;34527;45.618;5.130;2023-05-07T12:41:51;4.07;;;3.00;;
48727;SDS011;34527;45.618;5.130;2023-05-07T12:44:21;4.05;;;2.80;;
48727;SDS011;34527;45.618;5.130;2023-05-07T12:46:47;3.45;;;3.10;;
48727;SDS011;34527;45.618;5.130;2023-05-07T12:49:13;4.63;;;2.90;;
48727;SDS011;34527;45.618;5.130;2023-05-07T12:51:38;2.90;;;2.70;;
48727;SDS011;34527;45.618;5.130;2023-05-07T12:54:04;2.95;;;2.45;;
48727;SDS011;34527;45.618;5.130;2023-05-07T12:56:35;3.00;;;2.38;;
48727;SDS011;34527;45.618;5.130;2023-05-07T12:59:01;4.25;;;3.35;;
48727;SDS011;34527;45.618;5.130;2023-05-07T13:01:30;3.03;;;2.80;;
48727;SDS011;34527;45.618;5.130;2023-05-07T13:04:03;3.25;;;2.25;;
48727;SDS011;34527;45.618;5.130;2023-05-07T13:06:29;2.20;;;2.00;;
48727;SDS011;34527;45.618;5.130;2023-05-07T13:08:56;3.42;;;2.13;;
48727;SDS011;34527;45.618;5.130;2023-05-07T13:11:21;4.15;;;2.67;;
48727;SDS011;34527;45.618;5.130;2023-05-07T13:13:47;2.65;;;2.45;;
48727;SDS011;34527;45.618;5.130;2023-05-07T13:16:13;3.28;;;2.25;;
48727;SDS011;34527;45.618;5.130;2023-05-07T13:18:39;2.95;;;2.20;;
48727;SDS011;34527;45.618;5.130;2023-05-07T13:21:05;3.60;;;2.90;;
48727;SDS011;34527;45.618;5.130;2023-05-07T13:23:31;2.85;;;2.55;;
48727;SDS011;34527;45.618;5.130;2023-05-07T13:25:56;2.67;;;2.17;;
48727;SDS011;34527;45.618;5.130;2023-05-07T13:28:22;2.67;;;2.33;;
48727;SDS011;34527;45.618;5.130;2023-05-07T13:30:49;1.92;;;1.73;;
48727;SDS011;34527;45.618;5.130;2023-05-07T13:33:16;2.15;;;1.77;;
48727;SDS011;34527;45.618;5.130;2023-05-07T13:35:42;3.33;;;1.88;;
48727;SDS011;34527;45.618;5.130;2023-05-07T13:38:08;2.35;;;1.83;;
48727;SDS011;34527;45.618;5.130;2023-05-07T13:40:33;1.85;;;1.67;;
48727;SDS011;34527;45.618;5.130;2023-05-07T13:42:59;2.17;;;1.95;;
48727;SDS011;34527;45.618;5.130;2023-05-07T13:45:27;3.67;;;2.25;;
48727;SDS011;34527;45.618;5.130;2023-05-07T13:47:54;2.67;;;2.13;;
48727;SDS011;34527;45.618;5.130;2023-05-07T13:50:21;2.55;;;2.35;;
48727;SDS011;34527;45.618;5.130;2023-05-07T13:52:46;5.72;;;2.50;;
48727;SDS011;34527;45.618;5.130;2023-05-07T13:55:19;3.47;;;2.75;;
48727;SDS011;34527;45.618;5.130;2023-05-07T13:57:45;4.15;;;2.78;;
48727;SDS011;34527;45.618;5.130;2023-05-07T14:00:12;3.95;;;2.78;;
48727;SDS011;34527;45.618;5.130;2023-05-07T14:02:38;2.75;;;2.50;;
48727;SDS011;34527;45.618;5.130;2023-05-07T14:05:04;2.45;;;2.25;;
48727;SDS011;34527;45.618;5.130;2023-05-07T14:07:30;3.85;;;2.65;;
48727;SDS011;34527;45.618;5.130;2023-05-07T14:09:56;2.40;;;2.20;;
48727;SDS011;34527;45.618;5.130;2023-05-07T14:12:22;2.70;;;2.13;;
48727;SDS011;34527;45.618;5.130;2023-05-07T14:14:47;3.38;;;2.10;;
48727;SDS011;34527;45.618;5.130;2023-05-07T14:17:14;2.55;;;1.98;;
48727;SDS011;34527;45.618;5.130;2023-05-07T14:19:43;2.45;;;2.25;;
48727;SDS011;34527;45.618;5.130;2023-05-07T14:22:09;2.35;;;2.05;;
48727;SDS011;34527;45.618;5.130;2023-05-07T14:24:35;2.28;;;2.08;;
48727;SDS011;34527;45.618;5.130;2023-05-07T14:27:01;5.20;;;2.05;;
48727;SDS011;34527;45.618;5.130;2023-05-07T14:29:27;2.75;;;2.30;;
48727;SDS011;34527;45.618;5.130;2023-05-07T14:31:53;2.35;;;2.17;;
48727;SDS011;34527;45.618;5.130;2023-05-07T14:34:18;1.52;;;1.42;;
48727;SDS011;34527;45.618;5.130;2023-05-07T14:36:44;1.80;;;1.60;;
48727;SDS011;34527;45.618;5.130;2023-05-07T14:39:10;2.05;;;1.40;;
48727;SDS011;34527;45.618;5.130;2023-05-07T14:41:35;1.70;;;1.60;;
48727;SDS011;34527;45.618;5.130;2023-05-07T14:44:01;1.88;;;1.60;;
48727;SDS011;34527;45.618;5.130;2023-05-07T14:46:28;1.25;;;1.10;;
48727;SDS011;34527;45.618;5.130;2023-05-07T14:48:54;2.40;;;2.17;;
48727;SDS011;34527;45.618;5.130;2023-05-07T14:51:20;2.88;;;1.00;;
48727;SDS011;34527;45.618;5.130;2023-05-07T14:53:46;1.70;;;1.20;;
48727;SDS011;34527;45.618;5.130;2023-05-07T14:56:11;1.25;;;0.90;;
48727;SDS011;34527;45.618;5.130;2023-05-07T14:58:37;2.92;;;0.90;;
48727;SDS011;34527;45.618;5.130;2023-05-07T15:01:03;1.15;;;1.05;;
48727;SDS011;34527;45.618;5.130;2023-05-07T15:03:28;0.75;;;0.75;;